createdAt,value
2018-12-16T00:02:41.226Z,41.20
2018-12-16T00:05:48.034Z,40.10
2018-12-16T00:08:52.772Z,46.07
2018-12-16T00:11:57.491Z,41.67
2018-12-16T00:15:02.214Z,38.83
2018-12-16T00:18:07.471Z,36.90
2018-12-16T00:21:12.283Z,32.57
2018-12-16T00:24:17.486Z,32.97
2018-12-16T00:27:22.280Z,33.30
2018-12-16T00:30:27.022Z,37.00
2018-12-16T00:33:31.777Z,33.07
2018-12-16T00:36:36.590Z,37.97
2018-12-16T00:39:41.318Z,48.13
2018-12-16T00:42:46.070Z,38.70
2018-12-16T00:45:50.831Z,34.33
2018-12-16T00:48:55.550Z,33.20
2018-12-16T00:52:00.288Z,36.17
2018-12-16T00:55:05.498Z,30.33
2018-12-16T00:58:10.231Z,38.27
2018-12-16T01:01:14.999Z,32.83
2018-12-16T01:04:19.806Z,33.93
2018-12-16T01:07:24.545Z,31.30
2018-12-16T01:10:29.299Z,32.20
2018-12-16T01:13:34.045Z,30.53
2018-12-16T01:16:38.787Z,31.30
2018-12-16T01:19:43.522Z,30.97
2018-12-16T01:22:48.234Z,33.90
2018-12-16T01:25:53.026Z,45.97
2018-12-16T01:28:57.818Z,38.37
2018-12-16T01:32:02.580Z,32.43
2018-12-16T01:35:07.512Z,28.43
2018-12-16T01:38:12.234Z,24.37
2018-12-16T01:41:16.954Z,26.47
2018-12-16T01:44:21.678Z,29.57
2018-12-16T01:47:26.413Z,27.63
2018-12-16T01:50:31.129Z,39.53
2018-12-16T01:53:35.859Z,29.90
2018-12-16T01:56:40.593Z,27.33
2018-12-16T01:59:45.310Z,30.20
2018-12-16T02:02:50.065Z,35.67
2018-12-16T02:05:54.828Z,32.43
2018-12-16T02:08:59.557Z,31.97
2018-12-16T02:12:04.321Z,32.03
2018-12-16T02:15:09.379Z,29.83
2018-12-16T02:18:15.154Z,28.93
2018-12-16T02:21:19.894Z,28.67
2018-12-16T02:24:24.658Z,29.87
2018-12-16T02:27:29.370Z,29.13
2018-12-16T02:30:34.151Z,34.17
2018-12-16T02:33:38.889Z,34.77
2018-12-16T02:36:43.625Z,30.87
2018-12-16T02:39:48.382Z,31.83
2018-12-16T02:42:53.076Z,33.97
2018-12-16T02:45:57.873Z,35.80
2018-12-16T02:49:02.591Z,37.43
2018-12-16T02:52:07.348Z,40.23
2018-12-16T02:55:12.129Z,39.43
2018-12-16T02:58:16.947Z,38.70
2018-12-16T03:01:21.665Z,39.17
2018-12-16T03:04:27.659Z,37.10
2018-12-16T03:07:32.403Z,39.33
2018-12-16T03:10:37.215Z,36.67
2018-12-16T03:13:41.925Z,37.70
2018-12-16T03:16:46.668Z,35.87
2018-12-16T03:19:51.409Z,36.67
2018-12-16T03:22:56.107Z,34.67
2018-12-16T03:26:00.838Z,34.67
2018-12-16T03:29:06.656Z,36.37
2018-12-16T03:32:11.427Z,36.87
2018-12-16T03:35:16.171Z,38.87
2018-12-16T03:38:20.922Z,49.63
2018-12-16T03:41:25.698Z,39.43
2018-12-16T03:44:30.428Z,52.40
2018-12-16T03:47:35.210Z,43.00
2018-12-16T03:50:39.941Z,40.10
2018-12-16T03:53:44.697Z,37.67
2018-12-16T03:56:49.437Z,38.97
2018-12-16T03:59:54.188Z,37.07
2018-12-16T04:02:58.899Z,37.13
2018-12-16T04:06:03.666Z,34.90
2018-12-16T04:09:08.444Z,36.10
2018-12-16T04:12:13.189Z,35.43
2018-12-16T04:15:18.207Z,36.03
2018-12-16T04:18:22.926Z,37.70
2018-12-16T04:21:27.636Z,38.07
2018-12-16T04:24:32.350Z,35.33
2018-12-16T04:27:37.093Z,34.17
2018-12-16T04:30:41.853Z,34.30
2018-12-16T04:33:46.619Z,34.57
2018-12-16T04:36:51.398Z,30.73
2018-12-16T04:39:56.135Z,30.73
2018-12-16T04:43:00.873Z,30.57
2018-12-16T04:46:05.619Z,26.13
2018-12-16T04:49:10.389Z,26.17
2018-12-16T04:52:15.128Z,26.00
2018-12-16T04:55:19.863Z,25.50
2018-12-16T04:58:24.583Z,24.27
2018-12-16T05:01:29.318Z,28.27
2018-12-16T05:04:34.031Z,30.00
2018-12-16T05:07:38.787Z,29.90
2018-12-16T05:10:43.493Z,30.17
2018-12-16T05:13:48.231Z,29.80
2018-12-16T05:16:52.974Z,27.10
2018-12-16T05:19:57.703Z,27.23
2018-12-16T05:23:02.448Z,27.53
2018-12-16T05:26:09.250Z,26.40
2018-12-16T05:29:13.985Z,28.17
2018-12-16T05:32:18.714Z,27.33
2018-12-16T05:35:23.429Z,27.57
2018-12-16T05:38:28.178Z,26.23
2018-12-16T05:41:33.006Z,28.03
2018-12-16T05:44:37.758Z,30.27
2018-12-16T05:47:42.470Z,36.67
2018-12-16T05:50:47.181Z,38.23
2018-12-16T05:53:51.941Z,41.93
2018-12-16T05:56:56.726Z,37.87
2018-12-16T06:00:01.496Z,55.13
2018-12-16T06:03:07.499Z,56.63
2018-12-16T06:06:12.234Z,52.37
2018-12-16T06:09:16.971Z,36.93
2018-12-16T06:12:21.689Z,33.70
2018-12-16T06:15:26.409Z,32.40
2018-12-16T06:18:31.170Z,35.43
2018-12-16T06:21:35.934Z,33.27
2018-12-16T06:24:40.680Z,36.73
2018-12-16T06:27:45.430Z,37.33
2018-12-16T06:30:50.498Z,38.30
2018-12-16T06:33:55.236Z,40.33
2018-12-16T06:36:59.941Z,40.47
2018-12-16T06:40:05.216Z,35.87
2018-12-16T06:43:09.901Z,34.93
2018-12-16T06:46:14.699Z,34.83
2018-12-16T06:49:19.422Z,36.57
2018-12-16T06:52:24.288Z,41.50
2018-12-16T06:55:29.068Z,41.53
2018-12-16T06:58:33.789Z,42.77
2018-12-16T07:01:38.513Z,40.67
2018-12-16T07:04:43.271Z,44.67
2018-12-16T07:07:48.036Z,40.93
2018-12-16T07:10:52.774Z,41.13
2018-12-16T07:13:57.535Z,38.53
2018-12-16T07:17:02.437Z,42.07
2018-12-16T07:20:07.789Z,40.60
2018-12-16T07:23:12.642Z,42.13
2018-12-16T07:29:32.912Z,42.73
2018-12-16T07:32:37.822Z,43.10
2018-12-16T07:35:42.615Z,44.63
2018-12-16T07:38:47.383Z,54.00
2018-12-16T07:41:52.185Z,45.80
2018-12-16T07:44:56.947Z,47.10
2018-12-16T07:48:01.685Z,47.87
2018-12-16T07:51:06.574Z,44.43
2018-12-16T07:54:16.097Z,44.83
2018-12-16T07:57:18.190Z,46.23
2018-12-16T08:00:22.999Z,46.10
2018-12-16T08:03:27.831Z,47.80
2018-12-16T08:06:32.562Z,49.90
2018-12-16T08:09:37.574Z,47.83
2018-12-16T08:12:42.309Z,46.23
2018-12-16T08:15:47.108Z,44.73
2018-12-16T08:18:51.861Z,46.90
2018-12-16T08:21:56.652Z,44.73
2018-12-16T08:25:01.434Z,46.00
2018-12-16T08:28:06.304Z,49.33
2018-12-16T08:31:11.236Z,47.40
2018-12-16T08:34:16.698Z,48.67
2018-12-16T08:37:21.493Z,39.57
2018-12-16T08:40:26.259Z,44.83
2018-12-16T08:43:31.003Z,43.47
2018-12-16T08:46:35.831Z,38.23
2018-12-16T08:49:40.587Z,37.10
2018-12-16T08:52:45.395Z,42.20
2018-12-16T08:55:50.960Z,49.63
2018-12-16T08:58:55.884Z,43.70
2018-12-16T09:02:00.619Z,44.47
2018-12-16T09:05:06.513Z,44.57
2018-12-16T09:08:12.311Z,41.77
2018-12-16T09:11:17.067Z,40.17
2018-12-16T09:14:21.817Z,41.53
2018-12-16T09:17:26.576Z,40.83
2018-12-16T09:20:31.307Z,38.63
2018-12-16T09:23:36.135Z,42.23
2018-12-16T09:26:40.887Z,42.70
2018-12-16T09:29:45.722Z,41.53
2018-12-16T09:32:50.513Z,45.70
2018-12-16T09:35:55.246Z,45.50
2018-12-16T09:39:00.006Z,46.93
2018-12-16T09:42:04.879Z,46.93
2018-12-16T09:45:09.705Z,48.47
2018-12-16T09:48:14.556Z,46.47
2018-12-16T09:51:19.470Z,48.73
2018-12-16T09:54:24.313Z,47.73
2018-12-16T09:57:29.046Z,49.73
2018-12-16T10:00:33.836Z,48.50
2018-12-16T10:03:38.592Z,47.70
2018-12-16T10:06:43.387Z,50.97
2018-12-16T10:09:48.160Z,63.27
2018-12-16T10:12:54.075Z,77.03
2018-12-16T10:15:58.979Z,52.60
2018-12-16T10:19:03.901Z,55.70
2018-12-16T10:22:08.669Z,52.87
2018-12-16T10:25:13.417Z,48.63
2018-12-16T10:28:18.191Z,57.37
2018-12-16T10:31:22.950Z,47.27
2018-12-16T10:34:27.691Z,48.80
2018-12-16T10:37:32.437Z,48.97
2018-12-16T10:40:38.335Z,50.50
2018-12-16T10:43:43.192Z,52.80
2018-12-16T10:46:47.958Z,55.63
2018-12-16T10:49:53.915Z,51.53
2018-12-16T10:52:58.692Z,62.63
2018-12-16T10:56:03.499Z,52.33
2018-12-16T10:59:08.289Z,53.50
2018-12-16T11:02:13.039Z,56.47
2018-12-16T11:05:18.293Z,58.37
2018-12-16T11:08:23.281Z,54.97
2018-12-16T11:11:28.032Z,109.67
2018-12-16T11:14:32.877Z,81.07
2018-12-16T11:17:37.686Z,234.27
2018-12-16T11:20:42.476Z,130.17
2018-12-16T11:23:53.543Z,83.67
2018-12-16T11:26:54.438Z,96.53
2018-12-16T11:29:59.162Z,85.43
2018-12-16T11:33:03.968Z,90.00
2018-12-16T11:36:08.735Z,93.67
2018-12-16T11:39:13.513Z,57.23
2018-12-16T11:42:18.246Z,53.87
2018-12-16T11:45:22.959Z,55.30
2018-12-16T11:48:27.833Z,41.13
2018-12-16T11:51:32.633Z,40.20
2018-12-16T11:54:37.794Z,46.37
2018-12-16T11:57:42.553Z,45.00
2018-12-16T12:00:47.314Z,43.73
2018-12-16T12:03:52.186Z,50.13
2018-12-16T12:06:56.962Z,35.40
2018-12-16T12:10:01.701Z,51.00
2018-12-16T12:13:07.418Z,85.13
2018-12-16T12:16:12.165Z,80.33
2018-12-16T12:19:16.902Z,45.50
2018-12-16T12:22:21.654Z,75.30
2018-12-16T12:25:26.421Z,70.43
2018-12-16T12:28:31.181Z,66.90
2018-12-16T12:31:35.989Z,51.80
2018-12-16T12:34:40.721Z,55.17
2018-12-16T12:37:45.444Z,93.37
2018-12-16T12:40:50.213Z,93.63
2018-12-16T12:43:54.971Z,73.70
2018-12-16T12:46:59.769Z,50.27
2018-12-16T12:50:04.759Z,48.13
2018-12-16T12:53:09.932Z,36.67
2018-12-16T12:56:14.691Z,23.60
2018-12-16T12:59:19.431Z,14.83
2018-12-16T13:02:24.183Z,9.77
2018-12-16T13:05:36.865Z,7.77
2018-12-16T13:08:36.777Z,20.90
2018-12-16T13:11:41.541Z,16.70
2018-12-16T13:14:46.275Z,11.50
2018-12-16T13:17:51.019Z,13.77
2018-12-16T13:20:55.883Z,8.77
2018-12-16T13:24:00.751Z,7.97
2018-12-16T13:27:05.506Z,11.20
2018-12-16T13:30:10.481Z,13.13
2018-12-16T13:33:15.223Z,11.23
2018-12-16T13:36:19.962Z,7.10
2018-12-16T13:39:24.736Z,6.50
2018-12-16T13:42:29.466Z,8.53
2018-12-16T13:45:34.230Z,9.10
2018-12-16T13:48:38.954Z,9.17
2018-12-16T13:51:43.711Z,7.17
2018-12-16T13:54:48.454Z,7.23
2018-12-16T13:57:53.571Z,6.40
2018-12-16T14:00:58.352Z,5.93
2018-12-16T14:04:03.103Z,6.27
2018-12-16T14:07:07.869Z,7.33
2018-12-16T14:10:12.650Z,7.53
2018-12-16T14:13:17.377Z,6.00
2018-12-16T14:16:22.132Z,3.77
2018-12-16T14:19:26.925Z,7.27
2018-12-16T14:22:31.650Z,6.83
2018-12-16T14:25:36.394Z,8.37
2018-12-16T14:28:41.170Z,7.77
2018-12-16T14:31:45.918Z,5.80
2018-12-16T14:34:50.658Z,4.70
2018-12-16T14:37:55.782Z,3.47
2018-12-16T14:41:00.537Z,7.33
2018-12-16T14:44:05.273Z,2.70
2018-12-16T14:47:10.047Z,3.10
2018-12-16T14:50:14.830Z,2.73
2018-12-16T14:53:19.626Z,4.10
2018-12-16T14:56:30.922Z,3.70
2018-12-16T14:59:35.687Z,5.00
2018-12-16T15:02:40.462Z,4.03
2018-12-16T15:05:45.181Z,31.97
2018-12-16T15:08:50.049Z,16.13
2018-12-16T15:11:54.820Z,4.33
2018-12-16T15:14:59.748Z,4.10
2018-12-16T15:18:04.544Z,4.37
2018-12-16T15:21:09.261Z,5.43
2018-12-16T15:24:13.986Z,3.37
2018-12-16T15:27:18.715Z,4.47
2018-12-16T15:30:23.482Z,4.23
2018-12-16T15:33:28.394Z,18.27
2018-12-16T15:36:33.154Z,30.37
2018-12-16T15:39:37.898Z,11.63
2018-12-16T15:42:42.638Z,7.03
2018-12-16T15:45:47.566Z,6.20
2018-12-16T15:48:52.305Z,3.40
2018-12-16T15:51:57.131Z,4.07
2018-12-16T15:55:01.935Z,3.97
2018-12-16T15:58:06.819Z,4.53
2018-12-16T16:01:11.555Z,4.40
2018-12-16T16:04:16.266Z,5.00
2018-12-16T16:07:20.999Z,4.87
2018-12-16T16:10:25.805Z,5.13
2018-12-16T16:13:30.660Z,4.67
2018-12-16T16:16:35.452Z,4.13
2018-12-16T16:19:40.167Z,5.77
2018-12-16T16:22:44.984Z,5.00
2018-12-16T16:25:49.797Z,6.03
2018-12-16T16:28:54.525Z,6.00
2018-12-16T16:32:00.647Z,5.13
2018-12-16T16:35:05.982Z,4.60
2018-12-16T16:38:10.885Z,4.30
2018-12-16T16:41:15.652Z,5.63
2018-12-16T16:44:20.396Z,4.27
2018-12-16T16:47:25.165Z,3.97
2018-12-16T16:50:30.046Z,4.23
2018-12-16T16:53:34.805Z,5.27
2018-12-16T16:56:39.612Z,8.07
2018-12-16T16:59:44.370Z,5.43
2018-12-16T17:02:49.095Z,5.97
2018-12-16T17:05:53.835Z,3.67
2018-12-16T17:08:58.702Z,3.80
2018-12-16T17:12:03.503Z,4.20
2018-12-16T17:15:08.498Z,4.97
2018-12-16T17:18:13.258Z,3.40
2018-12-16T17:21:18.073Z,4.43
2018-12-16T17:24:22.868Z,2.87
2018-12-16T17:27:35.060Z,3.90
2018-12-16T17:30:40.048Z,3.90
2018-12-16T17:33:44.837Z,4.23
2018-12-16T17:36:49.657Z,4.97
2018-12-16T17:39:54.374Z,5.37
2018-12-16T17:42:59.135Z,3.97
2018-12-16T17:46:03.939Z,5.13
2018-12-16T17:49:08.680Z,4.80
2018-12-16T17:52:14.196Z,8.30
2018-12-16T17:55:18.979Z,4.03
2018-12-16T17:58:24.349Z,5.03
2018-12-16T18:01:29.062Z,7.07
2018-12-16T18:04:33.935Z,5.53
2018-12-16T18:07:38.875Z,9.27
2018-12-16T18:10:43.782Z,6.97
2018-12-16T18:13:48.672Z,5.20
2018-12-16T18:16:54.471Z,4.90
2018-12-16T18:19:59.526Z,4.70
2018-12-16T18:23:04.408Z,5.20
2018-12-16T18:26:09.166Z,4.50
2018-12-16T18:29:13.915Z,3.80
2018-12-16T18:32:18.716Z,23.00
2018-12-16T18:35:23.479Z,10.90
2018-12-16T18:38:28.390Z,7.13
2018-12-16T18:41:33.116Z,7.93
2018-12-16T18:44:37.886Z,6.20
2018-12-16T18:47:42.711Z,6.23
2018-12-16T18:50:47.549Z,9.17
2018-12-16T18:53:54.650Z,9.83
2018-12-16T18:56:59.547Z,8.33
2018-12-16T19:00:04.767Z,7.67
2018-12-16T19:03:11.570Z,12.03
2018-12-16T19:06:16.361Z,16.63
2018-12-16T19:09:21.195Z,8.77
2018-12-16T19:12:25.996Z,5.57
2018-12-16T19:15:30.797Z,25.93
2018-12-16T19:18:35.987Z,7.37
2018-12-16T19:21:40.827Z,15.57
2018-12-16T19:24:45.555Z,10.10
2018-12-16T19:27:50.434Z,5.37
2018-12-16T19:30:55.244Z,13.40
2018-12-16T19:33:59.987Z,12.93
2018-12-16T19:37:05.461Z,10.13
2018-12-16T19:40:11.987Z,8.47
2018-12-16T19:43:16.887Z,7.00
2018-12-16T19:46:21.657Z,13.10
2018-12-16T19:49:26.444Z,16.13
2018-12-16T19:52:31.202Z,17.30
2018-12-16T19:55:35.997Z,14.73
2018-12-16T19:58:41.017Z,7.17
2018-12-16T20:01:45.771Z,15.47
2018-12-16T20:05:05.165Z,16.87
2018-12-16T20:08:10.056Z,10.20
2018-12-16T20:11:14.789Z,9.17
2018-12-16T20:14:19.558Z,6.93
2018-12-16T20:17:24.303Z,9.60
2018-12-16T20:20:29.032Z,7.53
2018-12-16T20:23:33.821Z,8.57
2018-12-16T20:26:38.526Z,8.13
2018-12-16T20:29:43.225Z,7.90
2018-12-16T20:32:47.932Z,8.17
2018-12-16T20:35:52.655Z,8.90
2018-12-16T20:38:57.689Z,10.10
2018-12-16T20:42:02.429Z,8.67
2018-12-16T20:45:08.042Z,9.20
2018-12-16T20:48:12.809Z,7.93
2018-12-16T20:51:17.555Z,10.43
2018-12-16T20:54:22.299Z,9.90
2018-12-16T20:57:27.043Z,10.63
2018-12-16T21:00:31.841Z,10.97
2018-12-16T21:03:36.763Z,10.70
2018-12-16T21:06:41.481Z,19.43
2018-12-16T21:09:46.202Z,17.23
2018-12-16T21:12:56.070Z,11.87
2018-12-16T21:16:05.742Z,14.80
2018-12-16T21:19:10.558Z,12.53
2018-12-16T21:22:15.444Z,14.53
2018-12-16T21:25:20.202Z,12.13
2018-12-16T21:28:24.921Z,15.20
2018-12-16T21:31:29.827Z,13.40
2018-12-16T21:34:34.584Z,13.70
2018-12-16T21:37:39.341Z,13.17
2018-12-16T21:40:44.085Z,15.43
2018-12-16T21:43:48.954Z,35.67
2018-12-16T21:46:53.742Z,29.43
2018-12-16T21:49:58.475Z,20.77
2018-12-16T21:53:03.557Z,41.73
2018-12-16T21:56:08.450Z,21.67
2018-12-16T21:59:13.370Z,40.37
2018-12-16T22:02:18.129Z,41.50
2018-12-16T22:05:26.969Z,12.53
2018-12-16T22:08:31.705Z,14.23
2018-12-16T22:11:36.446Z,16.53
2018-12-16T22:14:41.184Z,11.30
2018-12-16T22:17:45.919Z,13.43
2018-12-16T22:20:50.915Z,20.80
2018-12-16T22:23:55.625Z,13.30
2018-12-16T22:27:00.505Z,9.60
2018-12-16T22:30:06.201Z,10.40
2018-12-16T22:33:10.998Z,8.10
2018-12-16T22:36:15.778Z,16.90
2018-12-16T22:39:20.659Z,14.70
2018-12-16T22:42:25.473Z,19.77
2018-12-16T22:45:30.229Z,12.30
2018-12-16T22:48:35.062Z,12.53
2018-12-16T22:51:39.794Z,12.13
2018-12-16T22:54:44.538Z,13.97
2018-12-16T22:57:49.344Z,11.80
2018-12-16T23:00:59.641Z,12.67
2018-12-16T23:04:04.420Z,13.40
2018-12-16T23:07:09.173Z,13.40
2018-12-16T23:10:14.081Z,11.93
2018-12-16T23:13:18.834Z,11.20
2018-12-16T23:16:23.642Z,11.30
2018-12-16T23:19:28.412Z,10.47
2018-12-16T23:22:33.192Z,9.57
2018-12-16T23:25:37.917Z,10.97
2018-12-16T23:28:42.794Z,10.67
2018-12-16T23:31:47.583Z,9.63
2018-12-16T23:34:52.333Z,10.40
2018-12-16T23:37:57.210Z,10.07
2018-12-16T23:41:01.934Z,10.80
2018-12-16T23:44:06.745Z,9.37
2018-12-16T23:47:11.464Z,11.17
2018-12-16T23:50:17.463Z,8.23
2018-12-16T23:53:22.217Z,10.93
2018-12-16T23:56:27.000Z,10.80
2018-12-16T23:59:31.739Z,12.83
